Hallieford, Virginia
Current Conditions -  °F | °C
As of 6:15 PM on Tuesday 27 Jan 2015 (Local Time) from KW75 Reporting Station
Overcast Overcast  
Wind Chill: 25°   Ceiling: 11000
Heat Index: 34°   Visibility: 10mi
Dew Point: 25°   Wind: 12mph
Humidity: 70%   Direction: 330°NNW
Pressure: 29.83"   Gusts: 18mph
Location:  37.49°N, 76.34°W
Report Text: KW75 272315Z AUTO 33010G16KT 10SM OVC110 01/M04 A2983 RMK AO1 T00101039
Loading
Personal Weather Stations






























Interactive Weather Map New forecast layout! Learn more

10-Day Weather Forecast

Advertisements
Track Severe Weather on mobile